Time;durP1;ratioP1;P1;durP2;ratioP2;P2;SDS_P1;SDS_P2;PMS_P1;PMS_P2;Temp;Humidity;BMP_temperature;BMP_pressure;BME280_temperature;BME280_humidity;BME280_pressure;Samples;Min_cycle;Max_cycle;Signal;HPM_P1;HPM_P2
2022/01/11 00:00:30;;;;;;;41.83;24.65;;;;;;;-1.46;100.00;101146.69;5009305;28;20568;-79
2022/01/11 00:02:56;;;;;;;51.85;28.67;;;;;;;-1.37;100.00;101167.34;5009318;28;20117;-79
2022/01/11 00:05:31;;;;;;;43.50;24.92;;;;;;;-1.38;100.00;101173.31;5008854;28;20144;-79
2022/01/11 00:07:56;;;;;;;39.00;23.95;;;;;;;-1.43;100.00;101163.75;5009169;28;20469;-79
2022/01/11 00:10:29;;;;;;;45.53;26.58;;;;;;;-1.41;100.00;101164.69;5008824;28;20077;-79
2022/01/11 00:12:56;;;;;;;46.92;26.70;;;;;;;-1.44;100.00;101168.00;5009156;28;20034;-79
2022/01/11 00:15:22;;;;;;;50.03;27.90;;;;;;;-1.42;100.00;101178.28;5010304;28;20081;-79
2022/01/11 00:17:47;;;;;;;47.55;27.23;;;;;;;-1.46;100.00;101172.22;5012667;28;20117;-79
2022/01/11 00:20:15;;;;;;;45.85;26.35;;;;;;;-1.46;100.00;101182.44;4996041;28;20203;-79
2022/01/11 00:24:26;;;;;;;49.72;24.38;;;;;;;-1.48;100.00;101184.09;5052738;28;20037;-79
2022/01/11 00:25:32;;;;;;;47.53;25.67;;;;;;;-1.58;100.00;101171.91;5054320;28;20029;-79
2022/01/11 00:27:58;;;;;;;50.95;27.80;;;;;;;-1.61;100.00;101172.66;5054373;28;20017;-79
2022/01/11 00:30:29;;;;;;;47.55;25.33;;;;;;;-1.49;100.00;101197.69;5054515;28;20056;-79
2022/01/11 00:32:57;;;;;;;60.80;30.17;;;;;;;-1.54;100.00;101186.50;5053334;28;20063;-79
2022/01/11 00:35:27;;;;;;;54.75;27.60;;;;;;;-1.54;100.00;101189.03;5054359;28;20492;-79
2022/01/11 00:37:53;;;;;;;48.17;27.75;;;;;;;-1.55;100.00;101190.75;5054514;28;20062;-78
2022/01/11 00:40:19;;;;;;;56.50;31.10;;;;;;;-1.64;100.00;101197.28;5054170;28;20387;-79
2022/01/11 00:42:44;;;;;;;49.45;25.92;;;;;;;-1.76;100.00;101197.81;5053279;28;20111;-79
2022/01/11 00:45:11;;;;;;;55.47;30.02;;;;;;;-1.96;100.00;101173.41;5048642;28;20060;-79
2022/01/11 00:47:37;;;;;;;58.08;31.05;;;;;;;-2.02;100.00;101190.28;5016650;28;20384;-79
2022/01/11 00:50:05;;;;;;;127.28;51.13;;;;;;;-2.16;100.00;101181.31;5034247;28;20075;-79
2022/01/11 00:52:30;;;;;;;116.00;44.78;;;;;;;-2.16;100.00;101194.09;5034131;28;20444;-79
2022/01/11 00:54:56;;;;;;;89.65;39.78;;;;;;;-2.13;100.00;101208.63;5016195;28;20029;-79
2022/01/11 00:57:22;;;;;;;94.30;41.63;;;;;;;-2.24;100.00;101202.34;5033996;28;20029;-79
2022/01/11 00:59:48;;;;;;;92.15;41.33;;;;;;;-2.31;100.00;101202.16;5034228;28;20037;-79
2022/01/11 01:02:13;;;;;;;67.53;33.28;;;;;;;-2.45;100.00;101200.00;5034172;28;20424;-79
2022/01/11 01:04:39;;;;;;;68.78;34.55;;;;;;;-2.53;100.00;101204.84;5034260;28;20037;-79
2022/01/11 01:07:05;;;;;;;63.92;33.67;;;;;;;-2.57;100.00;101216.69;5016105;28;20033;-79
2022/01/11 01:09:40;;;;;;;75.60;42.08;;;;;;;-2.64;100.00;101219.84;5015724;28;20064;-79
2022/01/11 01:12:06;;;;;;;64.47;33.47;;;;;;;-2.74;100.00;101224.56;5033994;28;20022;-79
2022/01/11 01:14:32;;;;;;;63.20;33.78;;;;;;;-2.79;100.00;101229.53;5033890;28;20037;-79
2022/01/11 01:16:57;;;;;;;58.17;32.70;;;;;;;-2.96;100.00;101215.38;5033822;28;20026;-79
2022/01/11 01:19:26;;;;;;;67.97;36.20;;;;;;;-2.97;100.00;101226.38;5015679;28;20037;-79
2022/01/11 01:21:53;;;;;;;65.50;34.58;;;;;;;-3.02;100.00;101236.44;5016024;28;20358;-79
2022/01/11 01:24:18;;;;;;;66.78;35.70;;;;;;;-3.15;100.00;101216.44;5033498;28;20036;-79
2022/01/11 01:26:44;;;;;;;58.83;33.70;;;;;;;-3.10;100.00;101227.66;5032929;28;20053;-79
2022/01/11 01:29:09;;;;;;;66.07;34.92;;;;;;;-3.21;100.00;101229.81;5033535;28;20053;-79
2022/01/11 01:31:35;;;;;;;63.78;33.58;;;;;;;-3.18;100.00;101237.59;5033527;28;20104;-78
2022/01/11 01:34:00;;;;;;;63.08;34.22;;;;;;;-3.23;100.00;101244.22;5033616;28;20125;-79
2022/01/11 01:36:26;;;;;;;71.45;35.33;;;;;;;-3.46;100.00;101211.97;5033072;28;20078;-79
2022/01/11 01:38:52;;;;;;;64.72;34.42;;;;;;;-3.34;100.00;101246.38;5033207;28;20076;-79
2022/01/11 01:41:19;;;;;;;66.32;35.65;;;;;;;-3.45;100.00;101229.84;5015357;28;20017;-79
2022/01/11 01:43:49;;;;;;;70.13;35.80;;;;;;;-3.55;100.00;101221.00;5033228;28;20037;-79
2022/01/11 01:46:15;;;;;;;69.75;35.97;;;;;;;-3.46;100.00;101247.63;5040187;28;20107;-79
2022/01/11 01:48:41;;;;;;;68.28;34.40;;;;;;;-3.49;100.00;101240.75;5051745;28;20028;-78
2022/01/11 01:51:08;;;;;;;70.28;37.13;;;;;;;-3.58;100.00;101232.75;5052713;28;20434;-79
2022/01/11 01:53:36;;;;;;;80.28;41.47;;;;;;;-3.61;100.00;101233.53;5053202;28;20075;-78
2022/01/11 01:56:02;;;;;;;69.78;36.22;;;;;;;-3.69;100.00;101224.75;5053068;28;20110;-79
2022/01/11 01:58:29;;;;;;;71.05;38.83;;;;;;;-3.62;100.00;101238.56;5051446;28;20068;-78
2022/01/11 02:01:02;;;;;;;80.40;40.72;;;;;;;-3.70;100.00;101229.78;5052929;28;20021;-79
2022/01/11 02:03:31;;;;;;;74.75;40.40;;;;;;;-3.71;100.00;101231.44;5052470;28;20025;-79
2022/01/11 02:05:57;;;;;;;76.18;40.53;;;;;;;-3.71;100.00;101246.72;5052599;28;20028;-79
2022/01/11 02:08:25;;;;;;;73.70;39.45;;;;;;;-3.73;100.00;101252.59;5051350;28;20025;-78
2022/01/11 02:10:51;;;;;;;80.45;41.15;;;;;;;-3.81;100.00;101244.66;5052758;28;20463;-79
2022/01/11 02:13:16;;;;;;;79.30;40.80;;;;;;;-3.84;100.00;101250.50;5052570;28;20504;-79
2022/01/11 02:15:42;;;;;;;77.03;41.00;;;;;;;-3.88;100.00;101248.63;5052592;28;20159;-79
2022/01/11 02:18:16;;;;;;;73.32;40.78;;;;;;;-4.04;100.00;101226.88;5050951;28;20119;-79
2022/01/11 02:20:46;;;;;;;82.03;41.63;;;;;;;-3.87;100.00;101252.09;5051339;28;20040;-79
2022/01/11 02:23:15;;;;;;;79.55;42.05;;;;;;;-4.01;100.00;101239.69;5051112;28;20074;-79
2022/01/11 02:25:41;;;;;;;78.88;40.08;;;;;;;-3.97;100.00;101243.22;5052597;28;20029;-79
2022/01/11 02:28:09;;;;;;;78.30;41.78;;;;;;;-3.96;100.00;101254.25;5050791;28;20388;-79
2022/01/11 02:30:35;;;;;;;79.55;40.78;;;;;;;-4.00;100.00;101253.31;5052299;28;20074;-79
2022/01/11 02:33:05;;;;;;;79.70;43.67;;;;;;;-4.06;100.00;101245.41;5052170;28;20457;-79
2022/01/11 02:35:30;;;;;;;73.97;40.73;;;;;;;-4.02;100.00;101252.34;5052226;28;20029;-79
2022/01/11 02:37:56;;;;;;;75.03;41.42;;;;;;;-4.12;100.00;101235.03;5050392;28;20035;-79
2022/01/11 02:40:21;;;;;;;74.90;39.15;;;;;;;-4.14;100.00;101251.88;5050379;28;20143;-79
2022/01/11 02:42:47;;;;;;;75.55;41.45;;;;;;;-4.12;100.00;101255.38;5052403;28;20025;-79
2022/01/11 02:45:16;;;;;;;79.95;43.35;;;;;;;-4.10;100.00;101269.00;5050250;28;20057;-79
2022/01/11 02:47:44;;;;;;;82.70;44.30;;;;;;;-4.22;100.00;101258.34;5052223;28;20586;-79
2022/01/11 02:50:10;;;;;;;71.18;39.80;;;;;;;-4.29;100.00;101247.09;5051823;28;20051;-79
2022/01/11 02:52:36;;;;;;;72.70;41.53;;;;;;;-4.18;100.00;101271.25;5050780;28;20384;-79
2022/01/11 02:55:06;;;;;;;74.50;40.67;;;;;;;-4.19;100.00;101271.19;5051915;28;20119;-78
2022/01/11 02:57:32;;;;;;;73.73;41.00;;;;;;;-4.36;100.00;101250.19;5051903;28;20021;-78
2022/01/11 02:59:57;;;;;;;81.53;42.00;;;;;;;-4.24;100.00;101267.63;5050509;28;20033;-79
2022/01/11 03:02:23;;;;;;;71.15;40.20;;;;;;;-4.25;100.00;101273.53;5051733;28;20060;-79
2022/01/11 03:04:48;;;;;;;80.20;41.58;;;;;;;-4.23;100.00;101272.75;5050541;28;20071;-79
2022/01/11 03:07:21;;;;;;;81.32;40.83;;;;;;;-4.30;100.00;101270.78;5051668;28;20043;-79
2022/01/11 03:12:24;;;;;;;76.35;41.88;;;;;;;-4.30;100.00;101283.47;5051368;28;20039;-79
2022/01/11 03:14:49;;;;;;;80.22;40.17;;;;;;;-4.33;100.00;101283.38;5051663;28;20464;-79
2022/01/11 03:17:14;;;;;;;82.05;42.95;;;;;;;-4.45;100.00;101271.03;5049927;28;20075;-79
2022/01/11 03:19:40;;;;;;;77.82;41.97;;;;;;;-4.34;100.00;101289.25;5050503;28;20021;-79
2022/01/11 03:22:05;;;;;;;75.20;40.85;;;;;;;-4.36;100.00;101294.28;5051680;28;20487;-79
2022/01/11 03:24:31;;;;;;;79.40;40.97;;;;;;;-4.37;100.00;101291.72;5050167;28;20021;-79
2022/01/11 03:26:56;;;;;;;85.72;44.15;;;;;;;-4.50;100.00;101272.53;5049933;28;20461;-79
2022/01/11 03:29:21;;;;;;;79.40;42.28;;;;;;;-4.42;100.00;101294.06;5051344;28;20021;-79
2022/01/11 03:31:47;;;;;;;84.80;42.38;;;;;;;-4.52;100.00;101274.13;5051739;28;20021;-79
2022/01/11 03:34:18;;;;;;;81.68;42.75;;;;;;;-4.48;100.00;101282.75;5051552;28;20021;-79
2022/01/11 03:36:43;;;;;;;75.20;41.15;;;;;;;-4.43;100.00;101292.31;5051739;28;20059;-79
2022/01/11 03:39:09;;;;;;;80.25;42.05;;;;;;;-4.50;100.00;101292.03;5051242;28;20025;-79
2022/01/11 03:41:34;;;;;;;110.18;63.08;;;;;;;-4.50;100.00;101297.97;5051410;28;20428;-79
2022/01/11 03:44:00;;;;;;;129.80;61.28;;;;;;;-4.60;100.00;101280.59;5051684;28;20052;-79
2022/01/11 03:46:25;;;;;;;98.90;50.78;;;;;;;-4.53;100.00;101301.25;5035292;28;20136;-79
2022/01/11 03:48:51;;;;;;;96.85;47.67;;;;;;;-4.56;100.00;101305.34;5031696;28;20105;-79
2022/01/11 03:51:16;;;;;;;90.85;46.90;;;;;;;-4.56;100.00;101310.41;5016681;28;20033;-79
2022/01/11 03:53:53;;;;;;;83.53;45.25;;;;;;;-4.66;100.00;101304.09;5035257;28;20096;-79
2022/01/11 03:56:22;;;;;;;86.43;43.65;;;;;;;-4.63;100.00;101308.44;5035043;28;20038;-79
2022/01/11 03:58:50;;;;;;;94.28;47.20;;;;;;;-4.67;100.00;101306.59;5017406;28;20064;-79
2022/01/11 04:01:16;;;;;;;91.00;46.85;;;;;;;-4.75;100.00;101293.56;5017264;28;20502;-79
2022/01/11 04:03:42;;;;;;;95.93;49.17;;;;;;;-4.80;100.00;101290.81;5035157;28;20025;-79
2022/01/11 04:06:07;;;;;;;102.30;49.00;;;;;;;-4.71;100.00;101304.72;5034770;28;20052;-79
2022/01/11 04:08:33;;;;;;;91.22;46.10;;;;;;;-4.83;100.00;101292.38;5017253;28;20021;-79
2022/01/11 04:10:58;;;;;;;96.72;49.30;;;;;;;-4.72;100.00;101306.38;5017447;28;20029;-79
2022/01/11 04:13:23;;;;;;;97.22;46.88;;;;;;;-4.74;100.00;101307.13;5035174;28;20037;-79
2022/01/11 04:15:49;;;;;;;86.35;46.30;;;;;;;-4.76;100.00;101307.06;5017268;28;20137;-79
2022/01/11 04:18:15;;;;;;;90.20;45.45;;;;;;;-4.76;100.00;101309.63;5016841;28;20028;-79
2022/01/11 04:20:40;;;;;;;95.43;48.03;;;;;;;-4.76;100.00;101309.63;5034811;28;20109;-78
2022/01/11 04:23:09;;;;;;;102.88;48.85;;;;;;;-4.93;100.00;101282.59;5016968;28;20071;-78
2022/01/11 04:25:34;;;;;;;97.72;48.15;;;;;;;-4.79;100.00;101312.03;5017159;28;20362;-79
2022/01/11 04:28:01;;;;;;;94.35;47.25;;;;;;;-4.83;100.00;101305.06;5017015;28;20083;-79
2022/01/11 04:30:26;;;;;;;97.15;49.58;;;;;;;-4.89;100.00;101304.78;5016652;28;20030;-79
2022/01/11 04:32:52;;;;;;;95.15;48.30;;;;;;;-4.90;100.00;101310.69;5016835;28;20032;-79
2022/01/11 04:35:17;;;;;;;96.10;48.05;;;;;;;-4.95;100.00;101315.59;5034753;28;20116;-79
2022/01/11 04:37:44;;;;;;;93.63;47.92;;;;;;;-5.22;100.00;101272.09;5034411;28;20108;-78
2022/01/11 04:40:10;;;;;;;96.63;48.67;;;;;;;-4.95;100.00;101325.75;5016703;28;20029;-79
2022/01/11 04:42:36;;;;;;;101.57;48.38;;;;;;;-5.10;100.00;101302.22;5016679;28;20109;-78
2022/01/11 04:45:02;;;;;;;98.00;47.92;;;;;;;-5.08;100.00;101316.72;5034193;28;20053;-79
2022/01/11 04:47:28;;;;;;;95.28;48.40;;;;;;;-5.09;100.00;101319.22;5016291;28;20021;-79
2022/01/11 04:49:53;;;;;;;93.22;46.95;;;;;;;-5.21;100.00;101305.97;5034525;28;20037;-78
2022/01/11 04:52:18;;;;;;;96.25;48.00;;;;;;;-5.16;100.00;101319.75;5016045;28;20291;-79
2022/01/11 04:54:44;;;;;;;111.57;54.08;;;;;;;-5.18;100.00;101327.31;5016536;28;20055;-78
2022/01/11 04:57:09;;;;;;;102.20;50.50;;;;;;;-5.22;100.00;101322.03;5016278;28;20056;-79
2022/01/11 04:59:35;;;;;;;95.47;49.88;;;;;;;-5.38;100.00;101302.69;5016376;28;20032;-78
2022/01/11 05:02:01;;;;;;;111.43;55.97;;;;;;;-5.38;100.00;101301.03;5033059;28;20029;-79
2022/01/11 05:04:26;;;;;;;104.57;50.55;;;;;;;-5.40;100.00;101305.16;5033768;28;20417;-79
2022/01/11 05:06:52;;;;;;;102.78;50.67;;;;;;;-5.31;100.00;101325.91;5016030;28;20026;-79
2022/01/11 05:09:18;;;;;;;108.03;54.25;;;;;;;-5.36;100.00;101324.78;5033510;28;20034;-79
2022/01/11 05:11:43;;;;;;;102.30;52.28;;;;;;;-5.36;100.00;101324.78;5033991;28;20373;-79
2022/01/11 05:14:08;;;;;;;109.47;53.22;;;;;;;-5.48;100.00;101316.63;5033802;28;20635;-79
2022/01/11 05:16:34;;;;;;;107.43;51.92;;;;;;;-5.37;100.00;101337.44;5033786;28;20034;-79
2022/01/11 05:18:59;;;;;;;99.45;50.10;;;;;;;-5.41;100.00;101328.81;5011364;28;20037;-79
2022/01/11 05:21:25;;;;;;;106.13;52.28;;;;;;;-5.39;100.00;101336.50;5011098;28;20033;-79
2022/01/11 05:23:50;;;;;;;103.13;51.75;;;;;;;-5.42;100.00;101337.25;5011434;28;20125;-79
2022/01/11 05:26:16;;;;;;;112.88;54.92;;;;;;;-5.33;100.00;101350.34;4994598;28;20026;-79
2022/01/11 05:28:41;;;;;;;105.43;50.60;;;;;;;-5.47;100.00;101323.47;5011194;28;20481;-79
2022/01/11 05:31:06;;;;;;;101.10;52.00;;;;;;;-5.39;100.00;101347.53;5011177;28;20030;-79
2022/01/11 05:33:32;;;;;;;99.47;50.60;;;;;;;-5.37;100.00;101353.53;5011163;28;20548;-79
2022/01/11 05:35:58;;;;;;;98.85;51.95;;;;;;;-5.54;100.00;101334.13;4994675;28;20033;-78
2022/01/11 05:38:23;;;;;;;109.20;53.38;;;;;;;-5.46;100.00;101354.81;5010812;28;20052;-79
2022/01/11 05:40:50;;;;;;;100.80;52.15;;;;;;;-5.55;100.00;101347.66;5010955;28;20351;-79
2022/01/11 05:43:16;;;;;;;97.22;50.53;;;;;;;-5.61;100.00;101343.13;5010907;28;20042;-79
2022/01/11 05:45:42;;;;;;;91.88;49.63;;;;;;;-5.56;100.00;101354.38;5010805;28;20129;-79
2022/01/11 05:48:07;;;;;;;99.88;49.20;;;;;;;-5.48;100.00;101374.16;5010805;28;20032;-79
2022/01/11 05:50:34;;;;;;;96.43;50.88;;;;;;;-5.55;100.00;101383.19;5027154;28;20037;-79
2022/01/11 05:52:59;;;;;;;99.80;51.92;;;;;;;-5.56;100.00;101381.44;5015243;28;20091;-79
2022/01/11 05:55:25;;;;;;;100.03;50.17;;;;;;;-5.62;100.00;101384.56;5033062;28;20037;-79
2022/01/11 05:57:50;;;;;;;99.95;51.15;;;;;;;-5.64;100.00;101381.09;5033189;28;20059;-79
2022/01/11 06:00:18;;;;;;;103.30;53.28;;;;;;;-5.62;100.00;101386.22;5032824;28;20070;-79
2022/01/11 06:02:46;;;;;;;98.65;51.60;;;;;;;-5.60;100.00;101397.34;5032964;28;20059;-79
2022/01/11 06:05:13;;;;;;;100.63;53.50;;;;;;;-5.77;100.00;101378.78;5032812;28;20030;-79
2022/01/11 06:07:39;;;;;;;100.45;50.47;;;;;;;-5.70;100.00;101397.69;5015295;28;20124;-79
2022/01/11 06:10:06;;;;;;;91.90;48.75;;;;;;;-5.85;100.00;101386.03;5015191;28;20037;-78
2022/01/11 06:12:31;;;;;;;94.72;49.75;;;;;;;-5.73;100.00;101408.59;5032697;28;20033;-79
2022/01/11 06:14:57;;;;;;;96.20;48.92;;;;;;;-5.79;100.00;101404.06;5032739;28;20362;-79
2022/01/11 06:17:22;;;;;;;100.13;48.75;;;;;;;-5.75;100.00;101411.84;5032324;28;20362;-78
2022/01/11 06:19:47;;;;;;;104.95;52.40;;;;;;;-5.80;100.00;101411.63;5014644;28;20128;-79
2022/01/11 06:22:13;;;;;;;125.35;57.97;;;;;;;-5.96;100.00;101391.41;5032225;28;20469;-79
2022/01/11 06:24:38;;;;;;;317.90;174.02;;;;;;;-5.87;100.00;101418.06;5010311;28;20045;-78
2022/01/11 06:27:04;;;;;;;170.85;83.75;;;;;;;-5.87;100.00;101418.06;5010152;28;20053;-78
2022/01/11 06:29:30;;;;;;;211.75;98.72;;;;;;;-5.90;100.00;101422.09;4993707;28;20041;-79
2022/01/11 06:31:56;;;;;;;134.85;63.28;;;;;;;-5.92;100.00;101428.81;5010072;28;20096;-79
2022/01/11 06:34:21;;;;;;;108.97;54.60;;;;;;;-5.93;100.00;101427.97;5009971;28;20453;-79
2022/01/11 06:36:47;;;;;;;144.57;64.05;;;;;;;-5.93;100.00;101414.41;5010092;28;20582;-79
2022/01/11 06:39:12;;;;;;;308.95;112.40;;;;;;;-5.99;100.00;101407.34;5009714;28;20033;-78
2022/01/11 06:41:38;;;;;;;318.10;114.00;;;;;;;-5.86;100.00;101435.00;5009864;28;20386;-77
2022/01/11 06:44:05;;;;;;;550.75;214.82;;;;;;;-5.90;100.00;101424.66;5010048;28;20038;-77
2022/01/11 06:46:30;;;;;;;511.60;199.82;;;;;;;-5.88;100.00;101426.47;5025674;28;20140;-78
2022/01/11 06:48:57;;;;;;;352.48;128.65;;;;;;;-5.92;100.00;101419.53;5049354;28;20025;-78
2022/01/11 06:51:22;;;;;;;248.98;101.95;;;;;;;-5.83;100.00;101440.25;5049408;28;20099;-78
2022/01/11 06:53:48;;;;;;;193.23;84.43;;;;;;;-5.88;100.00;101421.41;5032825;28;20115;-78
2022/01/11 06:56:13;;;;;;;168.57;80.25;;;;;;;-5.80;100.00;101442.06;5044960;28;20045;-78
2022/01/11 06:58:39;;;;;;;185.80;82.32;;;;;;;-5.87;100.00;101429.88;5050641;28;20055;-78
2022/01/11 07:01:05;;;;;;;162.30;76.28;;;;;;;-5.79;100.00;101447.22;5051892;28;20032;-78
2022/01/11 07:03:31;;;;;;;158.70;74.10;;;;;;;-5.83;100.00;101444.44;5051624;28;20420;-78
2022/01/11 07:05:56;;;;;;;218.13;104.50;;;;;;;-5.81;100.00;101442.88;5050640;28;20028;-78
2022/01/11 07:08:24;;;;;;;228.55;109.45;;;;;;;-5.96;100.00;101429.47;5050588;28;20032;-78
2022/01/11 07:10:50;;;;;;;160.25;86.35;;;;;;;-5.82;100.00;101451.25;5051917;28;20033;-78
2022/01/11 07:13:16;;;;;;;207.40;96.18;;;;;;;-5.84;100.00;101446.13;5051443;28;20432;-78
2022/01/11 07:15:42;;;;;;;250.52;111.03;;;;;;;-5.77;100.00;101455.78;5051843;28;20029;-78
2022/01/11 07:18:10;;;;;;;218.00;96.63;;;;;;;-5.65;100.00;101452.94;5050107;28;20025;-78
2022/01/11 07:20:37;;;;;;;187.93;85.00;;;;;;;-5.46;100.00;101469.06;5051726;28;20453;-78
2022/01/11 07:23:04;;;;;;;163.93;79.53;;;;;;;-5.38;100.00;101467.75;5050251;28;20380;-78
2022/01/11 07:25:32;;;;;;;169.63;76.15;;;;;;;-5.41;100.00;101452.38;5053562;28;20025;-78
2022/01/11 07:27:59;;;;;;;187.63;80.75;;;;;;;-5.48;100.00;101430.88;5038029;28;20021;-78
2022/01/11 07:30:25;;;;;;;205.43;83.53;;;;;;;-5.24;100.00;101461.63;5055507;28;20032;-78
2022/01/11 07:32:50;;;;;;;172.90;74.65;;;;;;;-5.17;100.00;101465.34;5055599;28;20435;-78
2022/01/11 07:35:16;;;;;;;150.68;69.32;;;;;;;-5.13;100.00;101457.06;5055865;28;20112;-78
2022/01/11 07:37:41;;;;;;;132.77;62.92;;;;;;;-5.03;100.00;101467.69;5054452;28;20465;-78
2022/01/11 07:40:08;;;;;;;136.45;65.07;;;;;;;-4.98;100.00;101454.31;5019982;28;20041;-78
2022/01/11 07:42:35;;;;;;;135.57;64.20;;;;;;;-4.87;100.00;101465.84;5055374;28;20499;-78
2022/01/11 07:45:00;;;;;;;150.68;67.57;;;;;;;-4.90;100.00;101442.84;5053932;28;20430;-78
2022/01/11 07:47:26;;;;;;;156.88;69.78;;;;;;;-4.74;100.00;101440.19;5055420;28;20036;-78
2022/01/11 07:49:52;;;;;;;154.02;69.85;;;;;;;-4.45;100.00;101451.59;5055690;28;20120;-78
2022/01/11 07:52:18;;;;;;;166.40;72.90;;;;;;;-4.20;100.00;101462.84;5053957;28;20055;-78
2022/01/11 07:54:44;;;;;;;174.98;74.32;;;;;;;-4.00;100.00;101462.00;5055378;28;20377;-78
2022/01/11 07:57:11;;;;;;;187.20;81.05;;;;;;;-3.86;100.00;101447.28;5053769;28;20095;-78
2022/01/11 07:59:36;;;;;;;186.27;81.00;;;;;;;-3.62;100.00;101465.22;5055035;28;20112;-78
2022/01/11 08:02:03;;;;;;;173.27;79.90;;;;;;;-3.40;100.00;101472.03;5053774;28;20033;-78
2022/01/11 08:04:31;;;;;;;155.23;79.82;;;;;;;-3.24;100.00;101460.72;5019751;28;20087;-78
2022/01/11 08:06:58;;;;;;;167.85;80.20;;;;;;;-3.11;100.00;101452.75;5054912;28;20068;-78
2022/01/11 08:09:24;;;;;;;157.82;78.05;;;;;;;-2.83;100.00;101468.25;5053435;28;20033;-78
2022/01/11 08:11:50;;;;;;;160.98;80.25;;;;;;;-2.83;100.00;101442.75;5053675;28;20078;-78
2022/01/11 08:14:16;;;;;;;157.82;81.22;;;;;;;-2.57;100.00;101460.66;5053358;28;20025;-78
2022/01/11 08:16:41;;;;;;;153.45;77.43;;;;;;;-2.41;100.00;101465.50;5055119;28;20590;-78
2022/01/11 08:19:07;;;;;;;136.63;69.63;;;;;;;-2.33;100.00;101456.44;5054542;28;20016;-78
2022/01/11 08:21:34;;;;;;;141.32;71.05;;;;;;;-2.19;100.00;101456.94;5053498;28;20492;-78
2022/01/11 08:23:59;;;;;;;129.07;68.80;;;;;;;-2.06;100.00;101471.84;5054794;28;20064;-78
2022/01/11 08:26:25;;;;;;;133.65;70.75;;;;;;;-2.05;100.00;101459.94;5054296;28;20361;-78
2022/01/11 08:28:50;;;;;;;144.13;73.93;;;;;;;-1.87;100.00;101478.41;5054611;28;20472;-78
2022/01/11 08:31:17;;;;;;;156.77;77.28;;;;;;;-1.83;100.00;101458.94;5054193;28;20036;-78
2022/01/11 08:33:43;;;;;;;152.50;80.88;;;;;;;-1.70;100.00;101481.53;5053341;28;20048;-78
2022/01/11 08:36:08;;;;;;;173.75;93.75;;;;;;;-1.71;100.00;101478.94;5052954;28;20052;-78
2022/01/11 08:38:35;;;;;;;183.48;93.50;;;;;;;-1.60;100.00;101493.78;5053216;28;20060;-78
2022/01/11 08:41:02;;;;;;;178.63;95.78;;;;;;;-1.52;100.00;101507.69;5053079;28;20036;-78
2022/01/11 08:43:29;;;;;;;168.43;89.93;;;;;;;-1.55;100.00;101491.38;5036205;28;20179;-78
2022/01/11 08:45:54;;;;;;;149.32;80.55;;;;;;;-1.46;100.00;101498.47;5042554;28;20531;-78
2022/01/11 08:48:20;;;;;;;136.05;70.57;;;;;;;-1.42;100.00;101511.38;5034187;28;20052;-78
2022/01/11 08:51:07;;;;;;;132.00;62.28;;;;;;;-1.35;100.00;101508.22;5034365;28;20061;-78
2022/01/11 08:53:32;;;;;;;166.45;77.63;;;;;;;-1.35;100.00;101507.31;4972955;28;20081;-78
2022/01/11 08:55:58;;;;;;;200.73;93.70;;;;;;;-1.45;100.00;101516.41;4972842;28;20397;-78
2022/01/11 08:58:47;;;;;;;101.43;53.65;;;;;;;-1.67;100.00;101502.06;4972666;28;20027;-78
2022/01/11 09:01:14;;;;;;;90.43;48.90;;;;;;;-1.73;100.00;101513.75;4953291;29;20074;-78
2022/01/11 09:03:41;;;;;;;90.63;51.28;;;;;;;-1.86;100.00;101522.69;4953484;28;20126;-78
2022/01/11 09:06:09;;;;;;;92.85;47.78;;;;;;;-2.07;100.00;101503.25;4953067;29;20063;-78
2022/01/11 09:08:36;;;;;;;96.28;51.50;;;;;;;-2.05;100.00;101524.63;4953452;29;20035;-78
2022/01/11 09:11:04;;;;;;;96.03;53.60;;;;;;;-2.10;100.00;101521.06;4937372;29;20116;-78
2022/01/11 09:13:36;;;;;;;110.18;61.42;;;;;;;-2.24;100.00;101504.38;4937129;29;20495;-78
2022/01/11 09:16:01;;;;;;;111.00;62.38;;;;;;;-2.28;100.00;101499.97;4953337;29;20035;-78
2022/01/11 09:18:28;;;;;;;117.28;61.13;;;;;;;-2.32;100.00;101495.56;4953213;29;20046;-78
2022/01/11 09:20:53;;;;;;;95.03;55.53;;;;;;;-2.30;100.00;101510.13;4952989;29;20570;-78
2022/01/11 09:23:19;;;;;;;90.40;50.58;;;;;;;-2.32;100.00;101503.22;4933418;29;20043;-78
2022/01/11 09:25:45;;;;;;;92.95;51.55;;;;;;;-2.23;100.00;101515.44;4933738;29;20432;-78
2022/01/11 09:28:13;;;;;;;86.20;49.20;;;;;;;-2.30;100.00;101499.06;4933595;29;20510;-78
2022/01/11 09:30:38;;;;;;;89.65;50.72;;;;;;;-2.32;100.00;101493.03;4917934;29;20040;-78
2022/01/11 09:33:29;;;;;;;93.95;50.00;;;;;;;-2.13;100.00;101513.28;4934338;29;20043;-78
2022/01/11 09:35:56;;;;;;;;;;;;;;;-2.10;100.00;101512.53;4953305;29;20592;-78
2022/01/11 09:38:23;;;;;;;82.13;44.83;;;;;;;-2.22;100.00;101486.56;4952583;29;20262;-78
2022/01/11 09:40:51;;;;;;;94.72;52.40;;;;;;;-2.07;100.00;101510.94;4952778;29;20611;-78
2022/01/11 09:43:21;;;;;;;109.88;60.15;;;;;;;-2.03;100.00;101506.78;4952353;29;20035;-78
2022/01/11 09:45:48;;;;;;;148.55;78.00;;;;;;;-1.97;100.00;101509.56;4946510;28;20050;-78
2022/01/11 09:48:14;;;;;;;104.85;57.60;;;;;;;-1.91;100.00;101519.13;4932668;29;20035;-78
2022/01/11 09:50:40;;;;;;;108.45;57.28;;;;;;;-1.86;100.00;101513.34;4933420;29;20040;-78
2022/01/11 09:53:05;;;;;;;104.47;55.78;;;;;;;-1.89;100.00;101497.06;4933781;29;20036;-78
2022/01/11 09:55:31;;;;;;;92.82;50.35;;;;;;;-1.78;100.00;101526.38;4952227;29;20114;-78
2022/01/11 09:57:56;;;;;;;87.03;49.58;;;;;;;-1.74;100.00;101527.34;4936319;29;20110;-78
2022/01/11 10:00:22;;;;;;;82.53;48.67;;;;;;;-1.65;100.00;101530.22;4952085;29;20028;-78
2022/01/11 10:02:48;;;;;;;65.47;36.38;;;;;;;-1.66;100.00;101524.22;4958791;28;20394;-78
2022/01/11 10:05:14;;;;;;;64.95;36.35;;;;;;;-1.74;100.00;101505.22;4958317;28;20042;-79
2022/01/11 10:07:42;;;;;;;56.53;32.63;;;;;;;-1.63;100.00;101519.22;4984272;28;20130;-78
2022/01/11 10:10:16;;;;;;;59.13;34.35;;;;;;;-1.55;100.00;101522.91;4990759;28;20034;-78
2022/01/11 10:12:53;;;;;;;82.13;44.92;;;;;;;-1.62;100.00;101513.28;4952091;29;20046;-78
2022/01/11 10:15:33;;;;;;;74.25;41.38;;;;;;;-1.56;100.00;101525.41;4935890;29;20035;-78
2022/01/11 10:17:59;;;;;;;78.50;44.17;;;;;;;-1.58;100.00;101522.78;4952543;29;20105;-78
2022/01/11 10:20:25;;;;;;;78.68;42.30;;;;;;;-1.62;100.00;101525.22;4970918;28;20042;-78
2022/01/11 10:23:05;;;;;;;77.38;43.17;;;;;;;-1.58;100.00;101537.25;4971375;28;20042;-78
2022/01/11 10:25:41;;;;;;;79.25;43.33;;;;;;;-1.81;100.00;101511.84;4971197;28;20622;-78
2022/01/11 10:28:09;;;;;;;78.57;45.40;;;;;;;-1.80;100.00;101523.78;4971199;28;20045;-78
2022/01/11 10:30:35;;;;;;;85.43;44.67;;;;;;;-1.73;100.00;101540.16;4923467;28;20045;-78
2022/01/11 10:33:06;;;;;;;78.90;44.88;;;;;;;-1.82;100.00;101534.75;4955133;28;20693;-78
2022/01/11 10:35:42;;;;;;;88.22;48.33;;;;;;;-1.76;100.00;101542.63;4971344;28;20046;-78
2022/01/11 10:38:10;;;;;;;80.05;44.90;;;;;;;-1.81;100.00;101537.38;4954615;28;20205;-78
2022/01/11 10:40:40;;;;;;;76.78;42.38;;;;;;;-1.78;100.00;101552.78;4969772;28;20027;-78
2022/01/11 10:43:07;;;;;;;;;;;;;;;-1.81;100.00;101555.25;4983751;28;20503;-78
2022/01/11 10:45:37;;;;;;;74.93;41.38;;;;;;;-1.87;100.00;101560.13;5032080;28;20292;-78
2022/01/11 10:48:13;;;;;;;63.55;34.85;;;;;;;-1.89;100.00;101553.25;5032171;28;20029;-78
2022/01/11 10:50:46;;;;;;;82.60;46.20;;;;;;;-1.85;100.00;101561.06;5032035;28;20030;-78
2022/01/11 10:53:32;;;;;;;81.63;44.45;;;;;;;-1.92;100.00;101554.00;4996775;28;20042;-78
2022/01/11 10:56:00;;;;;;;81.93;44.65;;;;;;;-1.84;100.00;101565.34;5032238;28;20037;-78
2022/01/11 10:58:36;;;;;;;89.55;48.67;;;;;;;-1.85;100.00;101568.75;5032090;28;20025;-78
2022/01/11 11:01:06;;;;;;;87.00;48.28;;;;;;;-1.86;100.00;101558.44;5031368;28;20037;-78